createdAt,value
2019-05-25T00:00:34.179Z,10.3
2019-05-25T00:01:34.870Z,10.3
2019-05-25T00:02:35.551Z,10.3
2019-05-25T00:03:36.230Z,10.3
2019-05-25T00:04:36.889Z,10.3
2019-05-25T00:05:37.576Z,10.2
2019-05-25T00:06:38.260Z,10.2
2019-05-25T00:07:38.996Z,10.2
2019-05-25T00:08:39.662Z,10.2
2019-05-25T00:09:40.347Z,10.2
2019-05-25T00:10:41.036Z,10.3
2019-05-25T00:11:41.747Z,10.2
2019-05-25T00:12:42.473Z,10.2
2019-05-25T00:13:43.158Z,10.1
2019-05-25T00:14:43.846Z,10.2
2019-05-25T00:15:44.531Z,10.1
2019-05-25T00:16:45.223Z,10.1
2019-05-25T00:17:45.907Z,10.2
2019-05-25T00:18:46.672Z,10.1
2019-05-25T00:19:47.358Z,10.2
2019-05-25T00:20:48.035Z,10.1
2019-05-25T00:21:48.719Z,10.2
2019-05-25T00:22:49.407Z,10.1
2019-05-25T00:23:50.094Z,10.2
2019-05-25T00:24:50.781Z,10.0
2019-05-25T00:25:51.471Z,10.1
2019-05-25T00:26:52.155Z,10.0
2019-05-25T00:27:52.843Z,10.0
2019-05-25T00:28:53.554Z,10.0
2019-05-25T00:29:54.315Z,9.9
2019-05-25T00:30:55.031Z,10.0
2019-05-25T00:31:55.733Z,10.0
2019-05-25T00:32:56.445Z,10.0
2019-05-25T00:33:57.155Z,9.9
2019-05-25T00:34:57.894Z,9.8
2019-05-25T00:35:58.586Z,9.9
2019-05-25T00:36:59.356Z,9.9
2019-05-25T00:38:00.115Z,9.8
2019-05-25T00:39:00.836Z,9.8
2019-05-25T00:40:01.636Z,9.9
2019-05-25T00:41:02.719Z,9.9
2019-05-25T00:42:03.467Z,9.7
2019-05-25T00:43:04.248Z,9.7
2019-05-25T00:44:04.963Z,9.7
2019-05-25T00:45:05.814Z,9.7
2019-05-25T00:46:06.638Z,9.7
2019-05-25T00:47:07.342Z,9.7
2019-05-25T00:48:08.056Z,9.7
2019-05-25T00:49:08.764Z,9.7
2019-05-25T00:50:09.533Z,9.6
2019-05-25T00:51:10.296Z,9.7
2019-05-25T00:52:10.993Z,9.7
2019-05-25T00:53:11.683Z,9.7
2019-05-25T00:54:27.121Z,9.7
2019-05-25T00:55:13.285Z,9.7
2019-05-25T00:56:14.028Z,9.6
2019-05-25T00:57:14.773Z,9.6
2019-05-25T00:58:15.573Z,9.6
2019-05-25T00:59:16.354Z,9.6
2019-05-25T01:00:17.111Z,9.6
2019-05-25T01:01:17.791Z,9.6
2019-05-25T01:02:18.525Z,9.6
2019-05-25T01:03:19.219Z,9.5
2019-05-25T01:04:19.921Z,9.4
2019-05-25T01:05:20.658Z,9.5
2019-05-25T01:06:21.447Z,9.5
2019-05-25T01:07:22.213Z,9.5
2019-05-25T01:08:22.904Z,9.5
2019-05-25T01:09:23.698Z,9.5
2019-05-25T01:10:24.493Z,9.5
2019-05-25T01:11:25.336Z,9.6
2019-05-25T01:12:26.142Z,9.5
2019-05-25T01:13:26.938Z,9.4
2019-05-25T01:14:27.633Z,9.4
2019-05-25T01:15:28.361Z,9.4
2019-05-25T01:16:29.144Z,9.4
2019-05-25T01:17:29.977Z,9.4
2019-05-25T01:18:30.740Z,9.4
2019-05-25T01:19:31.422Z,9.3
2019-05-25T01:20:32.082Z,9.3
2019-05-25T01:21:32.820Z,9.3
2019-05-25T01:22:33.498Z,9.3
2019-05-25T01:23:34.187Z,9.3
2019-05-25T01:24:44.041Z,9.3
2019-05-25T01:25:35.541Z,9.3
2019-05-25T01:26:36.230Z,9.3
2019-05-25T01:27:36.919Z,9.3
2019-05-25T01:28:38.037Z,9.3
2019-05-25T01:29:38.700Z,9.3
2019-05-25T01:30:39.325Z,9.3
2019-05-25T01:31:40.003Z,9.2
2019-05-25T01:32:40.675Z,9.3
2019-05-25T01:33:41.361Z,9.3
2019-05-25T01:34:42.068Z,9.2
2019-05-25T01:35:42.797Z,9.2
2019-05-25T01:36:43.479Z,9.2
2019-05-25T01:37:44.166Z,9.2
2019-05-25T01:38:44.855Z,9.1
2019-05-25T01:39:45.539Z,9.2
2019-05-25T01:40:46.221Z,9.1
2019-05-25T01:41:46.909Z,9.2
2019-05-25T01:42:47.607Z,9.2
2019-05-25T01:43:48.446Z,9.1
2019-05-25T01:44:49.120Z,9.2
2019-05-25T01:45:49.829Z,9.1
2019-05-25T01:46:50.545Z,9.1
2019-05-25T01:47:51.409Z,9.2
2019-05-25T01:48:52.034Z,9.1
2019-05-25T01:49:52.714Z,9.1
2019-05-25T01:50:53.402Z,9.1
2019-05-25T01:51:54.363Z,9.1
2019-05-25T01:52:55.048Z,9.1
2019-05-25T01:53:55.774Z,9.0
2019-05-25T01:54:59.978Z,9.1
2019-05-25T01:55:57.124Z,9.0
2019-05-25T01:56:57.808Z,9.1
2019-05-25T01:57:58.496Z,9.1
2019-05-25T01:58:59.191Z,9.1
2019-05-25T01:59:59.875Z,9.1
2019-05-25T02:01:00.562Z,9.1
2019-05-25T02:02:01.252Z,9.1
2019-05-25T02:03:02.011Z,9.1
2019-05-25T02:04:02.875Z,9.2
2019-05-25T02:05:03.565Z,9.3
2019-05-25T02:06:04.250Z,9.4
2019-05-25T02:07:04.942Z,9.4
2019-05-25T02:08:05.625Z,9.4
2019-05-25T02:09:06.310Z,9.4
2019-05-25T02:10:06.994Z,9.5
2019-05-25T02:11:07.681Z,9.5
2019-05-25T02:12:08.367Z,9.6
2019-05-25T02:13:09.104Z,9.6
2019-05-25T02:14:09.830Z,9.7
2019-05-25T02:15:10.486Z,9.7
2019-05-25T02:16:11.176Z,9.7
2019-05-25T02:17:11.862Z,9.7
2019-05-25T02:18:12.547Z,9.7
2019-05-25T02:19:13.235Z,9.8
2019-05-25T02:20:13.921Z,9.9
2019-05-25T02:21:14.598Z,9.9
2019-05-25T02:22:15.284Z,9.9
2019-05-25T02:23:15.964Z,10.0
2019-05-25T02:24:16.675Z,10.0
2019-05-25T02:25:18.739Z,10.0
2019-05-25T02:26:18.052Z,10.0
2019-05-25T02:27:18.697Z,10.0
2019-05-25T02:28:19.394Z,10.1
2019-05-25T02:29:20.069Z,10.2
2019-05-25T02:30:20.757Z,10.1
2019-05-25T02:31:21.445Z,10.2
2019-05-25T02:32:22.126Z,10.2
2019-05-25T02:33:22.817Z,10.2
2019-05-25T02:34:23.501Z,10.2
2019-05-25T02:35:24.189Z,10.2
2019-05-25T02:36:24.883Z,10.3
2019-05-25T02:37:25.570Z,10.3
2019-05-25T02:38:26.224Z,10.4
2019-05-25T02:39:26.963Z,10.3
2019-05-25T02:40:27.650Z,10.4
2019-05-25T02:41:28.341Z,10.4
2019-05-25T02:42:29.023Z,10.6
2019-05-25T02:43:29.681Z,10.5
2019-05-25T02:44:30.373Z,10.6
2019-05-25T02:45:31.052Z,10.7
2019-05-25T02:46:31.738Z,10.7
2019-05-25T02:47:32.422Z,10.6
2019-05-25T02:48:33.115Z,10.7
2019-05-25T02:49:33.802Z,10.8
2019-05-25T02:50:34.484Z,10.8
2019-05-25T02:51:35.175Z,10.8
2019-05-25T02:52:35.884Z,10.8
2019-05-25T02:53:36.568Z,10.9
2019-05-25T02:54:37.266Z,10.9
2019-05-25T02:55:37.946Z,11.0
2019-05-25T02:56:38.632Z,10.9
2019-05-25T02:57:39.317Z,10.9
2019-05-25T02:58:40.017Z,11.0
2019-05-25T02:59:40.693Z,11.0
2019-05-25T03:00:41.385Z,10.9
2019-05-25T03:01:42.081Z,11.0
2019-05-25T03:02:42.817Z,11.1
2019-05-25T03:03:43.464Z,11.0
2019-05-25T03:04:44.152Z,11.0
2019-05-25T03:05:44.976Z,11.1
2019-05-25T03:06:45.537Z,11.1
2019-05-25T03:07:46.224Z,11.2
2019-05-25T03:08:46.913Z,11.1
2019-05-25T03:09:47.603Z,11.2
2019-05-25T03:10:48.295Z,11.2
2019-05-25T03:11:48.979Z,11.2
2019-05-25T03:12:49.667Z,11.2
2019-05-25T03:13:50.369Z,11.2
2019-05-25T03:14:51.051Z,11.2
2019-05-25T03:15:51.746Z,11.3
2019-05-25T03:16:52.429Z,11.3
2019-05-25T03:17:53.114Z,11.3
2019-05-25T03:18:53.809Z,11.4
2019-05-25T03:19:54.493Z,11.3
2019-05-25T03:20:55.178Z,11.4
2019-05-25T03:21:55.873Z,11.3
2019-05-25T03:22:56.568Z,11.4
2019-05-25T03:23:57.253Z,11.2
2019-05-25T03:24:57.936Z,11.3
2019-05-25T03:25:58.629Z,11.4
2019-05-25T03:26:59.316Z,11.4
2019-05-25T03:28:00.012Z,11.4
2019-05-25T03:29:00.701Z,11.4
2019-05-25T03:30:01.393Z,11.4
2019-05-25T03:31:02.090Z,11.5
2019-05-25T03:32:02.778Z,11.4
2019-05-25T03:33:03.434Z,11.3
2019-05-25T03:34:04.117Z,11.4
2019-05-25T03:35:04.807Z,11.4
2019-05-25T03:36:05.501Z,11.5
2019-05-25T03:37:06.247Z,11.4
2019-05-25T03:38:06.884Z,11.5
2019-05-25T03:39:07.580Z,11.5
2019-05-25T03:40:08.282Z,11.4
2019-05-25T03:41:08.956Z,11.4
2019-05-25T03:42:09.657Z,11.5
2019-05-25T03:43:10.338Z,11.5
2019-05-25T03:44:11.023Z,11.6
2019-05-25T03:45:11.711Z,11.6
2019-05-25T03:46:12.403Z,11.6
2019-05-25T03:47:13.095Z,11.6
2019-05-25T03:48:13.787Z,11.6
2019-05-25T03:49:14.480Z,11.6
2019-05-25T03:50:15.169Z,11.5
2019-05-25T03:51:15.855Z,11.6
2019-05-25T03:52:16.550Z,11.5
2019-05-25T03:53:17.242Z,11.6
2019-05-25T03:54:17.933Z,11.7
2019-05-25T03:55:18.626Z,11.6
2019-05-25T03:56:19.312Z,11.6
2019-05-25T03:57:20.015Z,11.7
2019-05-25T03:58:20.700Z,11.7
2019-05-25T03:59:21.393Z,11.7
2019-05-25T04:00:22.085Z,11.7
2019-05-25T04:01:22.778Z,11.7
2019-05-25T04:02:23.467Z,11.7
2019-05-25T04:03:24.157Z,11.8
2019-05-25T04:04:24.855Z,11.8
2019-05-25T04:05:25.538Z,11.7
2019-05-25T04:06:26.236Z,11.7
2019-05-25T04:07:26.918Z,11.8
2019-05-25T04:08:27.625Z,11.8
2019-05-25T04:09:28.301Z,11.8
2019-05-25T04:10:28.989Z,11.9
2019-05-25T04:11:29.680Z,11.8
2019-05-25T04:12:30.370Z,11.8
2019-05-25T04:13:31.055Z,11.8
2019-05-25T04:14:31.749Z,11.9
2019-05-25T04:15:32.475Z,11.9
2019-05-25T04:16:33.130Z,11.9
2019-05-25T04:17:33.818Z,11.9
2019-05-25T04:18:34.517Z,11.9
2019-05-25T04:19:35.198Z,11.9
2019-05-25T04:20:35.893Z,12.0
2019-05-25T04:21:36.582Z,12.0
2019-05-25T04:22:37.279Z,11.9
2019-05-25T04:23:37.972Z,12.0
2019-05-25T04:24:38.663Z,11.9
2019-05-25T04:25:39.362Z,11.9
2019-05-25T04:26:40.046Z,11.9
2019-05-25T04:27:40.736Z,11.9
2019-05-25T04:28:41.430Z,11.9
2019-05-25T04:29:42.126Z,11.9
2019-05-25T04:30:42.814Z,12.0
2019-05-25T04:31:43.478Z,12.0
2019-05-25T04:32:44.186Z,12.0
2019-05-25T04:33:44.861Z,12.0
2019-05-25T04:34:45.572Z,12.0
2019-05-25T04:35:46.253Z,12.0
2019-05-25T04:36:46.941Z,12.1
2019-05-25T04:37:47.633Z,12.1
2019-05-25T04:38:48.351Z,12.0
2019-05-25T04:39:49.011Z,12.1
2019-05-25T04:40:49.706Z,12.1
2019-05-25T04:41:50.398Z,12.1
2019-05-25T04:42:51.101Z,12.2
2019-05-25T04:43:51.786Z,12.2
2019-05-25T04:44:52.480Z,12.2
2019-05-25T04:45:53.172Z,12.1
2019-05-25T04:46:53.867Z,12.3
2019-05-25T04:47:54.557Z,12.2
2019-05-25T04:48:55.247Z,12.1
2019-05-25T04:49:55.944Z,12.2
2019-05-25T04:50:56.635Z,12.2
2019-05-25T04:51:57.331Z,12.2
2019-05-25T04:52:58.021Z,12.3
2019-05-25T04:53:58.715Z,12.3
2019-05-25T04:54:59.402Z,12.4
2019-05-25T04:56:00.094Z,12.4
2019-05-25T04:57:00.827Z,12.4
2019-05-25T04:58:01.502Z,12.5
2019-05-25T04:59:02.184Z,12.4
2019-05-25T05:00:02.904Z,12.4
2019-05-25T05:01:03.594Z,12.4
2019-05-25T05:02:04.285Z,12.5
2019-05-25T05:03:04.977Z,12.4
2019-05-25T05:04:05.685Z,12.5
2019-05-25T05:05:06.373Z,12.5
2019-05-25T05:06:07.069Z,12.5
2019-05-25T05:07:07.764Z,12.5
2019-05-25T05:08:08.451Z,12.5
2019-05-25T05:09:09.142Z,12.6
2019-05-25T05:10:09.836Z,12.7
2019-05-25T05:11:10.527Z,12.6
2019-05-25T05:12:11.221Z,12.6
2019-05-25T05:13:11.921Z,12.6
2019-05-25T05:14:12.621Z,12.6
2019-05-25T05:15:13.324Z,12.7
2019-05-25T05:16:13.990Z,12.7
2019-05-25T05:17:14.689Z,12.7
2019-05-25T05:18:15.378Z,12.8
2019-05-25T05:19:16.071Z,12.8
2019-05-25T05:20:16.764Z,12.8
2019-05-25T05:21:17.459Z,12.8
2019-05-25T05:22:18.160Z,12.8
2019-05-25T05:23:18.853Z,12.8
2019-05-25T05:24:19.538Z,12.8
2019-05-25T05:25:20.195Z,12.8
2019-05-25T05:26:20.890Z,12.6
2019-05-25T05:27:21.585Z,12.7
2019-05-25T05:28:22.275Z,12.7
2019-05-25T05:29:22.976Z,12.7
2019-05-25T05:30:23.662Z,12.8
2019-05-25T05:31:24.362Z,12.8
2019-05-25T05:32:27.905Z,12.8
2019-05-25T05:33:25.742Z,12.8
2019-05-25T05:34:26.445Z,12.8
2019-05-25T05:35:27.140Z,12.8
2019-05-25T05:36:27.826Z,12.8
2019-05-25T05:37:28.525Z,12.9
2019-05-25T05:38:29.212Z,12.8
2019-05-25T05:39:29.918Z,12.8
2019-05-25T05:40:30.605Z,12.9
2019-05-25T05:41:31.390Z,12.8
2019-05-25T05:42:31.990Z,12.9
2019-05-25T05:43:32.680Z,12.8
2019-05-25T05:44:33.380Z,12.8
2019-05-25T05:45:34.084Z,12.9
2019-05-25T05:46:34.771Z,12.9
2019-05-25T05:47:35.467Z,12.9
2019-05-25T05:48:36.164Z,12.9
2019-05-25T05:49:36.854Z,12.9
2019-05-25T05:50:37.550Z,12.9
2019-05-25T05:51:38.243Z,12.9
2019-05-25T05:52:38.941Z,13.0
2019-05-25T05:53:39.628Z,13.0
2019-05-25T05:54:40.326Z,12.9
2019-05-25T05:55:41.017Z,13.0
2019-05-25T05:56:41.713Z,12.9
2019-05-25T05:57:42.407Z,12.9
2019-05-25T05:58:43.105Z,13.0
2019-05-25T05:59:43.799Z,13.0
2019-05-25T06:00:44.490Z,12.9
2019-05-25T06:01:45.183Z,12.9
2019-05-25T06:02:45.879Z,12.9
2019-05-25T06:03:46.584Z,12.9
2019-05-25T06:04:47.270Z,12.8
2019-05-25T06:05:47.974Z,12.9
2019-05-25T06:06:48.662Z,12.8
2019-05-25T06:07:49.354Z,12.9
2019-05-25T06:08:50.048Z,12.8
2019-05-25T06:09:50.744Z,13.0
2019-05-25T06:10:51.435Z,13.0
2019-05-25T06:11:52.131Z,12.9
2019-05-25T06:12:52.822Z,13.0
2019-05-25T06:13:53.521Z,13.1
2019-05-25T06:14:54.217Z,13.1
2019-05-25T06:15:56.006Z,13.1
2019-05-25T06:16:55.604Z,13.2
2019-05-25T06:17:56.293Z,13.2
2019-05-25T06:18:56.984Z,13.1
2019-05-25T06:19:57.680Z,13.2
2019-05-25T06:20:58.380Z,13.2
2019-05-25T06:21:59.099Z,13.2
2019-05-25T06:22:59.762Z,13.2
2019-05-25T06:24:00.447Z,13.3
2019-05-25T06:25:01.148Z,13.3
2019-05-25T06:26:01.845Z,13.2
2019-05-25T06:27:02.535Z,13.2
2019-05-25T06:28:03.228Z,13.4
2019-05-25T06:29:03.922Z,13.4
2019-05-25T06:30:04.613Z,13.3
2019-05-25T06:31:05.280Z,13.4
2019-05-25T06:32:05.945Z,13.4
2019-05-25T06:33:06.642Z,13.4
2019-05-25T06:34:07.336Z,13.4
2019-05-25T06:35:08.034Z,13.5
2019-05-25T06:36:08.733Z,13.5
2019-05-25T06:37:09.429Z,13.5
2019-05-25T06:38:10.126Z,13.6
2019-05-25T06:39:10.837Z,13.5
2019-05-25T06:40:11.538Z,13.6
2019-05-25T06:41:12.210Z,13.5
2019-05-25T06:42:12.908Z,13.5
2019-05-25T06:43:13.599Z,13.6
2019-05-25T06:44:14.312Z,13.6
2019-05-25T06:45:14.992Z,13.5
2019-05-25T06:46:15.685Z,13.5
2019-05-25T06:47:16.383Z,13.5
2019-05-25T06:48:17.082Z,13.6
2019-05-25T06:49:17.776Z,13.6
2019-05-25T06:50:18.474Z,13.5
2019-05-25T06:51:19.172Z,13.5
2019-05-25T06:52:19.872Z,13.6
2019-05-25T06:53:20.565Z,13.7
2019-05-25T06:54:21.265Z,13.7
2019-05-25T06:55:21.956Z,13.7
2019-05-25T06:56:22.651Z,13.9
2019-05-25T06:57:23.349Z,13.9
2019-05-25T06:58:24.042Z,14.0
2019-05-25T06:59:24.764Z,14.1
2019-05-25T07:00:25.461Z,14.1
2019-05-25T07:01:26.159Z,14.1
2019-05-25T07:02:26.855Z,14.3
2019-05-25T07:03:27.558Z,14.4
2019-05-25T07:04:28.245Z,14.5
2019-05-25T07:05:28.938Z,14.5
2019-05-25T07:06:29.636Z,14.5
2019-05-25T07:07:30.327Z,14.6
2019-05-25T07:08:31.027Z,14.6
2019-05-25T07:09:31.726Z,14.7
2019-05-25T07:10:32.428Z,14.5
2019-05-25T07:11:33.118Z,14.5
2019-05-25T07:12:33.814Z,14.6
2019-05-25T07:13:34.510Z,14.7
2019-05-25T07:14:35.203Z,14.8
2019-05-25T07:15:35.895Z,14.9
2019-05-25T07:16:36.591Z,15.0
2019-05-25T07:17:37.291Z,14.8
2019-05-25T07:18:37.989Z,14.9
2019-05-25T07:19:38.682Z,15.3
2019-05-25T07:20:39.374Z,15.3
2019-05-25T07:21:40.068Z,15.4
2019-05-25T07:22:40.767Z,15.6
2019-05-25T07:23:41.526Z,15.4
2019-05-25T07:24:42.153Z,15.2
2019-05-25T07:25:42.859Z,15.1
2019-05-25T07:26:43.544Z,15.2
2019-05-25T07:27:58.108Z,15.3
2019-05-25T07:28:44.984Z,15.2
2019-05-25T07:29:45.701Z,15.1
2019-05-25T07:30:46.791Z,15.3
2019-05-25T07:31:47.173Z,15.2
2019-05-25T07:32:47.865Z,15.3
2019-05-25T07:33:48.552Z,15.4
2019-05-25T07:34:49.294Z,15.6
2019-05-25T07:35:50.008Z,15.7
2019-05-25T07:36:50.722Z,15.7
2019-05-25T07:37:51.487Z,15.7
2019-05-25T07:38:52.196Z,15.6
2019-05-25T07:39:52.893Z,15.5
2019-05-25T07:40:53.602Z,15.7
2019-05-25T07:41:54.285Z,15.8
2019-05-25T07:42:54.986Z,15.8
2019-05-25T07:43:55.681Z,15.8
2019-05-25T07:44:56.377Z,15.9
2019-05-25T07:45:57.073Z,16.0
2019-05-25T07:46:57.773Z,15.9
2019-05-25T07:47:58.469Z,15.9
2019-05-25T07:48:59.170Z,15.8
2019-05-25T07:49:59.866Z,15.8
2019-05-25T07:51:00.574Z,15.9
2019-05-25T07:52:02.851Z,16.0
2019-05-25T07:53:01.958Z,16.1
2019-05-25T07:54:02.666Z,16.3
2019-05-25T07:55:03.361Z,16.3
2019-05-25T07:56:04.059Z,16.3
2019-05-25T07:57:04.759Z,16.3
2019-05-25T07:58:16.502Z,16.3
2019-05-25T07:59:06.148Z,16.3
2019-05-25T08:00:06.842Z,16.3
2019-05-25T08:01:07.553Z,16.2
2019-05-25T08:02:08.240Z,16.2
2019-05-25T08:03:08.934Z,16.0
2019-05-25T08:04:09.629Z,16.1
2019-05-25T08:05:10.326Z,16.2
2019-05-25T08:06:11.004Z,16.1
2019-05-25T08:07:11.692Z,16.2
2019-05-25T08:08:12.396Z,16.3
2019-05-25T08:09:13.092Z,16.4
2019-05-25T08:10:13.844Z,16.7
2019-05-25T08:11:14.475Z,16.8
2019-05-25T08:12:15.173Z,16.8
2019-05-25T08:13:15.924Z,16.9
2019-05-25T08:14:16.618Z,16.9
2019-05-25T08:15:17.312Z,16.8
2019-05-25T08:16:18.009Z,16.8
2019-05-25T08:17:18.722Z,16.7
2019-05-25T08:18:19.444Z,16.9
2019-05-25T08:19:20.135Z,17.0
2019-05-25T08:20:20.822Z,17.3
2019-05-25T08:21:21.524Z,17.2
2019-05-25T08:22:22.223Z,17.3
2019-05-25T08:23:22.921Z,17.2
2019-05-25T08:24:23.619Z,17.0
2019-05-25T08:25:24.313Z,16.7
2019-05-25T08:26:25.006Z,16.3
2019-05-25T08:27:25.707Z,16.2
2019-05-25T08:28:32.693Z,16.2
2019-05-25T08:29:27.101Z,16.3
2019-05-25T08:30:27.800Z,16.1
2019-05-25T08:31:28.494Z,16.1
2019-05-25T08:32:29.188Z,16.0
2019-05-25T08:33:29.893Z,16.0
2019-05-25T08:34:30.579Z,15.9
2019-05-25T08:35:31.281Z,15.8
2019-05-25T08:36:31.970Z,15.7
2019-05-25T08:37:32.668Z,15.5
2019-05-25T08:38:33.365Z,15.5
2019-05-25T08:39:34.067Z,15.6
2019-05-25T08:40:34.774Z,15.6
2019-05-25T08:41:35.469Z,15.6
2019-05-25T08:42:36.171Z,15.6
2019-05-25T08:43:36.871Z,15.6
2019-05-25T08:44:37.565Z,15.6
2019-05-25T08:45:38.260Z,15.6
2019-05-25T08:46:38.959Z,15.6
2019-05-25T08:47:39.658Z,15.6
2019-05-25T08:48:40.352Z,15.5
2019-05-25T08:49:41.052Z,15.4
2019-05-25T08:50:41.746Z,15.4
2019-05-25T08:51:42.446Z,15.4
2019-05-25T08:52:43.144Z,15.4
2019-05-25T08:53:46.551Z,15.4
2019-05-25T08:54:44.526Z,15.4
2019-05-25T08:55:45.229Z,15.2
2019-05-25T08:56:45.928Z,15.4
2019-05-25T08:57:46.629Z,15.4
2019-05-25T08:58:48.624Z,15.3
2019-05-25T08:59:48.075Z,15.2
2019-05-25T09:00:48.776Z,15.1
2019-05-25T09:01:49.902Z,15.1
2019-05-25T09:02:50.200Z,15.2
2019-05-25T09:03:51.074Z,15.1
2019-05-25T09:04:51.825Z,15.1
2019-05-25T09:05:52.521Z,15.2
2019-05-25T09:06:53.217Z,15.2
2019-05-25T09:07:53.914Z,15.1
2019-05-25T09:08:54.697Z,15.0
2019-05-25T09:09:55.391Z,14.9
2019-05-25T09:10:56.095Z,14.7
2019-05-25T09:11:56.785Z,14.5
2019-05-25T09:12:57.478Z,14.6
2019-05-25T09:13:58.271Z,14.7
2019-05-25T09:14:59.019Z,14.6
2019-05-25T09:15:59.646Z,14.7
2019-05-25T09:17:00.368Z,14.7
2019-05-25T09:18:01.049Z,14.9
2019-05-25T09:19:01.764Z,14.9
2019-05-25T09:20:02.426Z,15.0
2019-05-25T09:21:03.123Z,15.2
2019-05-25T09:22:04.208Z,15.2
2019-05-25T09:23:04.519Z,15.3
2019-05-25T09:24:05.227Z,15.5
2019-05-25T09:25:05.918Z,15.6
2019-05-25T09:26:06.615Z,15.5
2019-05-25T09:27:07.324Z,15.8
2019-05-25T09:28:08.011Z,16.1
2019-05-25T09:29:08.709Z,16.4
2019-05-25T09:30:09.408Z,16.4
2019-05-25T09:31:10.103Z,16.7
2019-05-25T09:32:10.800Z,16.9
2019-05-25T09:33:11.569Z,17.1
2019-05-25T09:34:12.168Z,17.2
2019-05-25T09:35:12.868Z,17.5
2019-05-25T09:36:13.565Z,17.7
2019-05-25T09:37:14.261Z,17.7
2019-05-25T09:38:14.953Z,17.7
2019-05-25T09:39:15.656Z,17.7
2019-05-25T09:40:16.389Z,17.6
2019-05-25T09:41:17.084Z,17.7
2019-05-25T09:42:17.782Z,17.6
2019-05-25T09:43:18.485Z,17.5
2019-05-25T09:44:19.183Z,17.4
2019-05-25T09:45:19.883Z,17.3
2019-05-25T09:46:20.578Z,17.3
2019-05-25T09:47:21.271Z,17.3
2019-05-25T09:48:21.981Z,17.3
2019-05-25T09:49:22.668Z,17.2
2019-05-25T09:50:23.363Z,17.2
2019-05-25T09:51:24.058Z,16.9
2019-05-25T09:52:24.757Z,16.8
2019-05-25T09:53:25.451Z,16.8
2019-05-25T09:54:26.146Z,16.9
2019-05-25T09:55:26.847Z,16.9
2019-05-25T09:56:27.541Z,16.5
2019-05-25T09:57:28.239Z,16.4
2019-05-25T09:58:28.933Z,16.4
2019-05-25T09:59:29.635Z,16.5
2019-05-25T10:00:30.329Z,16.4
2019-05-25T10:01:31.049Z,16.6
2019-05-25T10:02:31.748Z,16.6
2019-05-25T10:03:32.446Z,16.6
2019-05-25T10:04:33.138Z,16.7
2019-05-25T10:05:33.833Z,16.8
2019-05-25T10:06:34.532Z,16.8
2019-05-25T10:07:35.230Z,17.0
2019-05-25T10:08:35.934Z,17.1
2019-05-25T10:09:39.873Z,17.0
2019-05-25T10:10:37.320Z,17.0
2019-05-25T10:11:38.020Z,16.9
2019-05-25T10:12:38.727Z,17.1
2019-05-25T10:13:39.423Z,17.1
2019-05-25T10:14:40.118Z,17.3
2019-05-25T10:15:40.809Z,17.3
2019-05-25T10:16:41.506Z,17.3
2019-05-25T10:17:42.203Z,17.2
2019-05-25T10:18:42.903Z,17.1
2019-05-25T10:19:43.602Z,17.2
2019-05-25T10:20:44.300Z,17.4
2019-05-25T10:21:44.996Z,17.6
2019-05-25T10:22:45.698Z,17.8
2019-05-25T10:23:46.400Z,18.3
2019-05-25T10:24:47.091Z,18.6
2019-05-25T10:25:47.797Z,18.9
2019-05-25T10:26:48.496Z,18.9
2019-05-25T10:27:49.196Z,18.9
2019-05-25T10:28:49.937Z,19.0
2019-05-25T10:29:50.680Z,19.0
2019-05-25T10:30:51.383Z,19.1
2019-05-25T10:31:52.079Z,19.0
2019-05-25T10:32:52.790Z,19.0
2019-05-25T10:33:53.490Z,18.8
2019-05-25T10:34:54.187Z,18.7
2019-05-25T10:35:54.890Z,18.6
2019-05-25T10:36:55.589Z,18.1
2019-05-25T10:37:56.304Z,17.9
2019-05-25T10:38:57.079Z,17.7
2019-05-25T10:39:57.757Z,17.7
2019-05-25T10:40:58.733Z,17.8
2019-05-25T10:41:59.152Z,18.2
2019-05-25T10:42:59.847Z,18.5
2019-05-25T10:44:00.548Z,18.7
2019-05-25T10:45:01.243Z,19.0
2019-05-25T10:46:01.942Z,19.2
2019-05-25T10:47:02.638Z,19.5
2019-05-25T10:48:03.338Z,19.1
2019-05-25T10:49:04.072Z,19.1
2019-05-25T10:50:04.807Z,19.1
2019-05-25T10:51:05.499Z,18.8
2019-05-25T10:52:06.199Z,18.8
2019-05-25T10:53:06.902Z,18.7
2019-05-25T10:54:07.643Z,18.7
2019-05-25T10:55:08.300Z,18.8
2019-05-25T10:56:08.992Z,18.8
2019-05-25T10:57:13.119Z,18.9
2019-05-25T10:58:10.378Z,18.9
2019-05-25T10:59:11.078Z,19.0
2019-05-25T11:00:11.840Z,19.1
2019-05-25T11:01:12.539Z,19.2
2019-05-25T11:02:13.248Z,19.2
2019-05-25T11:03:13.963Z,19.3
2019-05-25T11:04:14.666Z,19.2
2019-05-25T11:05:15.530Z,19.2
2019-05-25T11:06:16.209Z,19.3
2019-05-25T11:07:16.926Z,19.4
2019-05-25T11:08:17.611Z,19.2
2019-05-25T11:09:18.307Z,18.7
2019-05-25T11:10:19.006Z,18.7
2019-05-25T11:11:19.705Z,18.7
2019-05-25T11:12:20.404Z,18.6
2019-05-25T11:13:21.112Z,18.8
2019-05-25T11:14:21.804Z,18.9
2019-05-25T11:15:22.501Z,18.9
2019-05-25T11:16:23.227Z,18.6
2019-05-25T11:17:23.919Z,18.5
2019-05-25T11:18:24.613Z,18.4
2019-05-25T11:19:25.325Z,18.1
2019-05-25T11:20:26.037Z,18.2
2019-05-25T11:21:26.753Z,18.3
2019-05-25T11:22:27.475Z,18.4
2019-05-25T11:23:28.150Z,18.4
2019-05-25T11:24:28.845Z,18.4
2019-05-25T11:25:29.543Z,18.6
2019-05-25T11:26:30.244Z,18.5
2019-05-25T11:27:30.945Z,18.7
2019-05-25T11:28:31.645Z,18.7
2019-05-25T11:29:32.397Z,18.7
2019-05-25T11:30:33.065Z,18.4
2019-05-25T11:31:33.818Z,18.4
2019-05-25T11:32:34.465Z,18.5
2019-05-25T11:33:36.466Z,18.5
2019-05-25T11:34:35.866Z,18.5
2019-05-25T11:35:36.563Z,18.4
2019-05-25T11:36:37.267Z,18.6
2019-05-25T11:37:37.961Z,18.7
2019-05-25T11:38:38.738Z,18.9
2019-05-25T11:39:39.476Z,19.0
2019-05-25T11:40:40.178Z,19.1
2019-05-25T11:41:40.875Z,19.3
2019-05-25T11:42:41.570Z,19.4
2019-05-25T11:43:42.344Z,19.5
2019-05-25T11:44:42.953Z,19.6
2019-05-25T11:45:45.462Z,19.6
2019-05-25T11:46:44.366Z,19.7
2019-05-25T11:47:45.068Z,19.8
2019-05-25T11:48:45.766Z,19.6
2019-05-25T11:49:46.460Z,19.5
2019-05-25T11:50:47.160Z,19.4
2019-05-25T11:51:47.863Z,19.5
2019-05-25T11:52:48.639Z,19.5
2019-05-25T11:53:49.282Z,19.4
2019-05-25T11:54:49.964Z,18.6
2019-05-25T11:55:50.674Z,18.3
2019-05-25T11:56:51.375Z,18.6
2019-05-25T11:57:52.075Z,18.7
2019-05-25T11:58:52.759Z,18.8
2019-05-25T11:59:53.466Z,19.0
2019-05-25T12:00:54.312Z,18.8
2019-05-25T12:01:55.014Z,18.5
2019-05-25T12:02:55.721Z,18.5
2019-05-25T12:03:56.410Z,18.6
2019-05-25T12:04:57.173Z,18.3
2019-05-25T12:05:57.845Z,18.4
2019-05-25T12:06:58.541Z,18.4
2019-05-25T12:07:59.241Z,18.6
2019-05-25T12:08:59.935Z,18.3
2019-05-25T12:10:00.635Z,18.5
2019-05-25T12:11:01.371Z,18.6
2019-05-25T12:12:02.080Z,18.7
2019-05-25T12:13:02.779Z,18.9
2019-05-25T12:14:03.478Z,19.0
2019-05-25T12:15:04.185Z,19.2
2019-05-25T12:16:04.876Z,19.3
2019-05-25T12:17:05.600Z,19.3
2019-05-25T12:18:06.287Z,19.5
2019-05-25T12:19:06.984Z,19.5
2019-05-25T12:20:07.690Z,19.7
2019-05-25T12:21:08.379Z,19.7
2019-05-25T12:22:09.091Z,19.8
2019-05-25T12:23:09.822Z,19.6
2019-05-25T12:24:10.493Z,19.7
2019-05-25T12:25:11.210Z,19.6
2019-05-25T12:26:11.894Z,19.6
2019-05-25T12:27:12.594Z,19.3
2019-05-25T12:28:13.292Z,19.2
2019-05-25T12:29:13.994Z,19.2
2019-05-25T12:30:14.696Z,19.2
2019-05-25T12:31:15.392Z,19.3
2019-05-25T12:32:16.129Z,19.4
2019-05-25T12:33:17.014Z,19.4
2019-05-25T12:34:17.721Z,19.4
2019-05-25T12:35:18.429Z,19.5
2019-05-25T12:36:19.124Z,19.5
2019-05-25T12:37:19.818Z,19.0
2019-05-25T12:38:20.526Z,19.3
2019-05-25T12:39:21.221Z,19.2
2019-05-25T12:40:21.922Z,18.7
2019-05-25T12:41:22.639Z,18.7
2019-05-25T12:42:23.321Z,18.7
2019-05-25T12:43:24.022Z,18.8
2019-05-25T12:44:24.718Z,18.8
2019-05-25T12:45:25.419Z,19.1
2019-05-25T12:46:26.118Z,19.0
2019-05-25T12:47:26.834Z,18.6
2019-05-25T12:48:27.524Z,18.6
2019-05-25T12:49:28.226Z,18.3
2019-05-25T12:50:28.927Z,18.0
2019-05-25T12:51:29.624Z,18.2
2019-05-25T12:52:30.334Z,18.3
2019-05-25T12:53:31.024Z,18.5
2019-05-25T12:54:31.727Z,18.7
2019-05-25T12:55:32.432Z,19.1
2019-05-25T12:56:33.131Z,19.1
2019-05-25T12:57:33.832Z,19.5
2019-05-25T12:58:34.533Z,19.6
2019-05-25T12:59:35.234Z,20.6
2019-05-25T13:00:35.936Z,21.5
2019-05-25T13:01:36.643Z,22.1
2019-05-25T13:02:37.347Z,22.8
2019-05-25T13:03:38.046Z,22.8
2019-05-25T13:04:38.757Z,22.5
2019-05-25T13:05:39.458Z,22.6
2019-05-25T13:06:40.157Z,21.9
2019-05-25T13:07:40.850Z,21.6
2019-05-25T13:08:43.867Z,22.4
2019-05-25T13:09:42.248Z,23.3
2019-05-25T13:10:42.950Z,23.0
2019-05-25T13:11:43.652Z,23.1
2019-05-25T13:12:44.348Z,23.3
2019-05-25T13:13:45.051Z,23.5
2019-05-25T13:14:45.753Z,23.9
2019-05-25T13:15:46.467Z,24.0
2019-05-25T13:16:47.178Z,23.3
2019-05-25T13:17:48.097Z,22.7
2019-05-25T13:18:48.596Z,22.5
2019-05-25T13:19:49.295Z,22.0
2019-05-25T13:20:49.999Z,21.9
2019-05-25T13:21:50.701Z,22.0
2019-05-25T13:22:51.401Z,21.9
2019-05-25T13:23:52.111Z,21.8
2019-05-25T13:24:52.822Z,22.4
2019-05-25T13:25:53.507Z,21.9
2019-05-25T13:26:54.205Z,21.9
2019-05-25T13:27:54.918Z,22.8
2019-05-25T13:28:55.619Z,23.5
2019-05-25T13:29:56.321Z,23.6
2019-05-25T13:31:10.914Z,24.1
2019-05-25T13:31:57.722Z,24.0